Time;durP1;ratioP1;P1;durP2;ratioP2;P2;SDS_P1;SDS_P2;PMS_P1;PMS_P2;Temp;Humidity;BMP_temperature;BMP_pressure;BME280_temperature;BME280_humidity;BME280_pressure;Samples;Min_cycle;Max_cycle;Signal;HPM_P1;HPM_P2
2021/05/23 00:00:24;;;;;;;0.32;0.28;;;13.30;56.80;;;;;;5035073;28;20045;-64
2021/05/23 00:02:53;;;;;;;0.40;0.17;;;13.30;56.80;;;;;;5030400;28;20041;-65
2021/05/23 00:05:23;;;;;;;0.30;0.10;;;13.20;56.60;;;;;;5030171;28;20072;-65
2021/05/23 00:07:59;;;;;;;0.93;0.30;;;13.20;57.20;;;;;;5026948;28;20035;-65
2021/05/23 00:10:30;;;;;;;2.05;0.28;;;13.10;58.00;;;;;;5022416;28;20033;-65
2021/05/23 00:13:03;;;;;;;1.95;0.30;;;13.10;57.90;;;;;;5029435;28;20033;-65
2021/05/23 00:15:32;;;;;;;0.30;0.10;;;13.00;58.20;;;;;;5032805;28;20033;-65
2021/05/23 00:18:05;;;;;;;0.15;0.10;;;12.90;58.30;;;;;;5031465;28;20044;-65
2021/05/23 00:20:36;;;;;;;0.43;0.20;;;12.90;58.60;;;;;;5031906;28;20033;-65
2021/05/23 00:23:02;;;;;;;1.83;0.20;;;12.80;58.50;;;;;;5030729;28;20120;-65
2021/05/23 00:25:32;;;;;;;0.40;0.22;;;12.80;58.70;;;;;;5034480;28;20400;-65
2021/05/23 00:27:58;;;;;;;0.28;0.10;;;12.70;59.00;;;;;;5031633;28;20030;-65
2021/05/23 00:30:30;;;;;;;0.47;0.20;;;12.70;59.00;;;;;;5032642;28;20030;-64
2021/05/23 00:32:58;;;;;;;0.88;0.20;;;12.70;59.60;;;;;;5027359;28;20155;-65
2021/05/23 00:35:28;;;;;;;1.33;0.30;;;12.70;59.50;;;;;;5030765;28;20319;-65
2021/05/23 00:37:54;;;;;;;0.93;0.20;;;12.70;60.30;;;;;;5036762;28;20116;-65
2021/05/23 00:40:24;;;;;;;0.30;0.10;;;12.70;60.30;;;;;;5032064;28;20160;-64
2021/05/23 00:42:50;;;;;;;0.40;0.20;;;12.60;60.80;;;;;;5031409;28;20029;-64
2021/05/23 00:45:22;;;;;;;0.60;0.20;;;12.70;60.80;;;;;;5034797;28;20420;-64
2021/05/23 00:47:50;;;;;;;0.35;0.20;;;12.60;61.00;;;;;;5032156;28;20477;-64
2021/05/23 00:50:28;;;;;;;0.10;0.10;;;12.60;61.30;;;;;;5030850;28;20045;-64
2021/05/23 00:53:00;;;;;;;0.22;0.10;;;12.60;62.00;;;;;;5032336;28;20026;-64
2021/05/23 00:55:33;;;;;;;0.20;0.17;;;12.60;61.20;;;;;;5036826;28;20123;-64
2021/05/23 00:58:07;;;;;;;0.52;0.30;;;12.70;61.60;;;;;;5033610;28;20037;-63
2021/05/23 01:00:35;;;;;;;1.33;0.20;;;12.60;61.60;;;;;;5032080;28;20034;-63
2021/05/23 01:03:04;;;;;;;0.30;0.20;;;12.70;61.30;;;;;;5031068;28;20041;-64
2021/05/23 01:05:32;;;;;;;0.80;0.20;;;12.60;61.50;;;;;;5033570;28;20038;-63
2021/05/23 01:08:00;;;;;;;0.80;0.20;;;12.50;61.90;;;;;;5032310;28;20045;-63
2021/05/23 01:10:26;;;;;;;0.30;0.17;;;12.50;62.20;;;;;;5028082;28;20041;-64
2021/05/23 01:12:59;;;;;;;1.80;0.20;;;12.50;62.70;;;;;;5031238;28;20037;-64
2021/05/23 01:15:43;;;;;;;0.20;0.10;;;12.40;63.00;;;;;;5032636;28;20036;-63
2021/05/23 01:18:15;;;;;;;0.50;0.10;;;12.40;64.50;;;;;;5026095;28;20029;-63
2021/05/23 01:20:58;;;;;;;0.68;0.17;;;12.40;63.70;;;;;;5028521;28;20062;-64
2021/05/23 01:23:29;;;;;;;1.50;0.20;;;12.30;64.80;;;;;;5029722;28;20116;-63
2021/05/23 01:26:04;;;;;;;0.88;0.10;;;12.20;63.80;;;;;;5035603;28;20037;-63
2021/05/23 01:29:03;;;;;;;1.98;0.20;;;12.10;64.10;;;;;;5035642;28;20034;-63
2021/05/23 01:31:36;;;;;;;0.10;0.10;;;12.10;64.30;;;;;;5021425;28;20026;-65
2021/05/23 01:34:09;;;;;;;0.70;0.20;;;12.00;64.30;;;;;;5031102;28;20037;-63
2021/05/23 01:36:47;;;;;;;0.85;0.30;;;11.90;65.20;;;;;;5028644;28;20037;-63
2021/05/23 01:39:19;;;;;;;0.30;0.20;;;11.90;65.50;;;;;;5026373;28;20025;-63
2021/05/23 01:41:49;;;;;;;1.10;0.30;;;11.80;65.00;;;;;;5035586;28;20037;-63
2021/05/23 01:44:15;;;;;;;0.70;0.20;;;11.70;65.70;;;;;;5032726;28;20033;-64
2021/05/23 01:46:41;;;;;;;0.65;0.20;;;11.60;65.90;;;;;;5031751;28;20128;-63
2021/05/23 01:49:09;;;;;;;0.28;0.13;;;11.50;65.90;;;;;;5035602;28;20040;-65
2021/05/23 01:51:39;;;;;;;0.68;0.22;;;11.50;66.70;;;;;;5046968;28;20501;-64
2021/05/23 01:54:07;;;;;;;0.43;0.30;;;11.50;67.20;;;;;;5030788;28;20030;-63
2021/05/23 01:56:37;;;;;;;0.20;0.20;;;11.40;67.40;;;;;;5034625;28;20029;-63
2021/05/23 01:59:10;;;;;;;0.52;0.17;;;11.30;67.30;;;;;;5037347;28;20116;-64
2021/05/23 02:01:38;;;;;;;0.30;0.15;;;11.30;67.60;;;;;;5031180;28;20144;-64
2021/05/23 02:04:09;;;;;;;1.27;0.10;;;11.30;67.40;;;;;;5028944;28;20045;-63
2021/05/23 02:06:41;;;;;;;0.20;0.20;;;11.20;67.60;;;;;;5031175;28;20034;-62
2021/05/23 02:09:11;;;;;;;0.30;0.10;;;11.20;68.10;;;;;;5029579;28;20036;-64
2021/05/23 02:11:37;;;;;;;0.13;0.10;;;11.10;67.90;;;;;;5029782;28;20053;-63
2021/05/23 02:14:08;;;;;;;0.55;0.20;;;11.10;68.20;;;;;;5029195;28;20065;-63
2021/05/23 02:16:36;;;;;;;0.08;0.08;;;11.10;68.50;;;;;;5032113;28;20120;-64
2021/05/23 02:19:04;;;;;;;0.38;0.10;;;11.10;68.40;;;;;;5033275;28;20034;-63
2021/05/23 02:21:34;;;;;;;0.20;0.20;;;11.10;68.60;;;;;;5037895;28;20116;-64
2021/05/23 02:24:08;;;;;;;1.30;0.10;;;11.20;69.90;;;;;;5034158;28;20040;-63
2021/05/23 02:26:34;;;;;;;0.10;0.00;;;11.10;69.30;;;;;;5030176;28;20022;-63
2021/05/23 02:28:59;;;;;;;0.32;0.10;;;11.10;68.80;;;;;;5026879;28;20554;-63
2021/05/23 02:31:31;;;;;;;0.20;0.10;;;11.10;69.10;;;;;;5032266;28;20493;-62
2021/05/23 02:34:04;;;;;;;1.33;0.13;;;11.00;69.20;;;;;;5032743;28;20037;-64
2021/05/23 02:36:30;;;;;;;0.10;0.10;;;11.00;69.60;;;;;;5031880;28;20057;-63
2021/05/23 02:38:58;;;;;;;0.15;0.10;;;11.00;69.30;;;;;;5034219;28;20055;-64
2021/05/23 02:41:26;;;;;;;0.20;0.20;;;11.00;70.00;;;;;;5029278;28;20120;-64
2021/05/23 02:43:56;;;;;;;0.88;0.20;;;11.10;69.80;;;;;;5041146;28;20036;-64
2021/05/23 02:46:24;;;;;;;1.02;0.40;;;11.00;70.30;;;;;;5037176;28;20025;-64
2021/05/23 02:48:52;;;;;;;0.63;0.20;;;11.00;70.20;;;;;;5035709;28;20064;-63
2021/05/23 02:51:20;;;;;;;2.38;0.20;;;11.00;69.90;;;;;;5034160;28;20033;-61
2021/05/23 02:53:50;;;;;;;0.30;0.30;;;11.00;70.00;;;;;;5037878;28;20116;-64
2021/05/23 02:56:18;;;;;;;0.32;0.32;;;11.00;70.50;;;;;;5035400;28;20068;-64
2021/05/23 02:58:49;;;;;;;0.60;0.25;;;11.00;70.70;;;;;;5037096;28;20500;-64
2021/05/23 03:01:16;;;;;;;0.65;0.20;;;11.00;70.30;;;;;;5035575;28;20037;-63
2021/05/23 03:03:44;;;;;;;0.57;0.17;;;10.90;70.50;;;;;;5026897;28;20408;-61
2021/05/23 03:06:14;;;;;;;0.35;0.20;;;10.90;70.60;;;;;;5037168;28;20041;-64
2021/05/23 03:08:44;;;;;;;0.70;0.10;;;10.90;70.90;;;;;;5041033;28;20037;-64
2021/05/23 03:11:15;;;;;;;0.93;0.20;;;10.90;70.80;;;;;;5027666;28;20057;-64
2021/05/23 03:13:43;;;;;;;0.20;0.20;;;10.80;71.00;;;;;;5035111;28;20034;-64
2021/05/23 03:16:16;;;;;;;0.88;0.20;;;10.80;72.30;;;;;;5033114;28;20594;-65
2021/05/23 03:18:41;;;;;;;0.38;0.13;;;10.80;72.10;;;;;;5035616;28;20043;-64
2021/05/23 03:21:09;;;;;;;0.75;0.17;;;10.70;72.20;;;;;;5025830;28;20104;-64
2021/05/23 03:23:37;;;;;;;0.30;0.20;;;10.70;72.20;;;;;;5028712;28;20041;-65
2021/05/23 03:26:03;;;;;;;0.20;0.20;;;10.70;71.80;;;;;;5029109;28;20496;-64
2021/05/23 03:28:28;;;;;;;0.47;0.20;;;10.70;72.00;;;;;;5030752;28;20030;-64
2021/05/23 03:30:56;;;;;;;0.30;0.13;;;10.60;72.30;;;;;;5030278;28;20033;-63
2021/05/23 03:33:22;;;;;;;0.45;0.20;;;10.70;72.70;;;;;;5036918;28;20084;-64
2021/05/23 03:35:52;;;;;;;0.40;0.20;;;10.60;72.40;;;;;;5037650;28;20392;-64
2021/05/23 03:38:18;;;;;;;0.32;0.20;;;10.70;72.90;;;;;;5030770;28;20589;-64
2021/05/23 03:40:46;;;;;;;0.75;0.10;;;10.60;72.80;;;;;;5031850;28;20037;-64
2021/05/23 03:43:13;;;;;;;0.70;0.20;;;10.60;72.80;;;;;;5030752;28;20034;-64
2021/05/23 03:45:46;;;;;;;24.10;9.82;;;10.60;72.80;;;;;;5034202;28;20028;-64
2021/05/23 03:48:14;;;;;;;5.53;4.80;;;10.60;73.20;;;;;;5035137;28;20161;-64
2021/05/23 03:50:40;;;;;;;3.22;2.85;;;10.60;73.10;;;;;;5034946;28;20025;-63
2021/05/23 03:53:08;;;;;;;1.30;1.20;;;10.60;73.20;;;;;;5027579;28;20387;-63
2021/05/23 03:55:34;;;;;;;3.25;2.95;;;10.60;73.50;;;;;;5031337;28;20489;-63
2021/05/23 03:58:00;;;;;;;1.30;1.20;;;10.60;74.40;;;;;;5031738;28;20036;-63
2021/05/23 04:00:33;;;;;;;1.38;0.60;;;10.60;73.60;;;;;;5027500;28;20040;-63
2021/05/23 04:03:01;;;;;;;1.30;1.17;;;10.60;73.90;;;;;;5032296;28;21690;-63
2021/05/23 04:05:33;;;;;;;1.98;0.77;;;10.60;73.60;;;;;;5030697;28;20068;-63
2021/05/23 04:08:01;;;;;;;0.40;0.20;;;10.60;74.40;;;;;;5032829;28;20516;-62
2021/05/23 04:10:37;;;;;;;0.60;0.20;;;10.60;73.70;;;;;;5031612;28;20059;-63
2021/05/23 04:13:07;;;;;;;1.25;1.15;;;10.70;74.40;;;;;;5029304;28;20526;-62
2021/05/23 04:15:40;;;;;;;1.50;0.50;;;10.70;74.10;;;;;;5030380;28;20033;-62
2021/05/23 04:18:06;;;;;;;2.03;1.77;;;10.70;74.40;;;;;;5033721;28;20045;-63
2021/05/23 04:20:34;;;;;;;1.95;0.30;;;10.70;74.00;;;;;;5030914;28;20041;-63
2021/05/23 04:23:04;;;;;;;0.40;0.20;;;10.70;75.00;;;;;;5034055;28;20026;-63
2021/05/23 04:25:34;;;;;;;0.20;0.20;;;10.80;74.50;;;;;;5031927;28;20037;-62
2021/05/23 04:28:04;;;;;;;0.15;0.10;;;10.70;72.50;;;;;;5041640;28;20038;-62
2021/05/23 04:30:35;;;;;;;2.13;1.33;;;10.60;71.70;;;;;;5029779;28;20029;-62
2021/05/23 04:33:02;;;;;;;3.53;2.38;;;10.60;71.40;;;;;;5027684;28;20033;-63
2021/05/23 04:35:33;;;;;;;4.70;3.20;;;10.40;70.90;;;;;;5026637;28;20029;-63
2021/05/23 04:38:01;;;;;;;102.40;50.53;;;10.40;71.00;;;;;;5029215;28;20505;-61
2021/05/23 04:40:32;;;;;;;22.27;15.38;;;10.30;71.30;;;;;;5035121;28;20179;-63
2021/05/23 04:43:02;;;;;;;5.53;4.03;;;10.30;71.90;;;;;;5033741;28;20030;-64
2021/05/23 04:45:35;;;;;;;20.08;16.02;;;10.30;72.00;;;;;;5027852;28;20033;-64
2021/05/23 04:48:04;;;;;;;7.85;6.55;;;10.30;72.30;;;;;;5028080;28;20045;-63
2021/05/23 04:50:31;;;;;;;26.42;23.08;;;10.30;72.30;;;;;;5025327;28;20128;-63
2021/05/23 04:52:57;;;;;;;8.77;7.82;;;10.30;72.10;;;;;;5029890;28;20029;-63
2021/05/23 04:55:29;;;;;;;8.65;7.85;;;10.30;72.10;;;;;;5031182;28;20032;-63
2021/05/23 04:57:55;;;;;;;5.13;3.95;;;10.30;72.40;;;;;;5034474;28;20486;-63
2021/05/23 05:00:26;;;;;;;5.20;4.80;;;10.30;72.30;;;;;;5030418;28;20060;-64
2021/05/23 05:02:57;;;;;;;1.20;1.10;;;10.30;72.90;;;;;;5029553;28;20040;-63
2021/05/23 05:05:25;;;;;;;1.42;1.33;;;10.30;73.00;;;;;;5035348;28;20032;-63
2021/05/23 05:07:55;;;;;;;0.50;0.50;;;10.30;73.30;;;;;;5032191;28;20037;-63
2021/05/23 05:10:25;;;;;;;0.30;0.30;;;10.40;73.70;;;;;;5026405;28;20026;-63
2021/05/23 05:12:53;;;;;;;1.27;0.40;;;10.40;73.60;;;;;;5027042;28;20596;-63
2021/05/23 05:15:19;;;;;;;1.52;0.95;;;10.40;74.10;;;;;;5029372;28;20029;-63
2021/05/23 05:17:47;;;;;;;0.60;0.60;;;10.50;74.20;;;;;;5030157;28;20044;-64
2021/05/23 05:20:15;;;;;;;0.50;0.50;;;10.50;74.30;;;;;;5029170;28;20492;-63
2021/05/23 05:22:43;;;;;;;2.17;0.60;;;10.60;74.50;;;;;;5041243;28;20083;-64
2021/05/23 05:25:14;;;;;;;0.70;0.70;;;10.60;74.40;;;;;;5034233;28;20036;-64
2021/05/23 05:27:44;;;;;;;1.60;1.50;;;10.60;74.90;;;;;;5034889;28;20555;-64
2021/05/23 05:30:13;;;;;;;1.90;1.80;;;10.70;74.90;;;;;;5030861;28;20493;-63
2021/05/23 05:32:43;;;;;;;1.00;0.90;;;10.70;74.90;;;;;;5027134;28;20033;-63
2021/05/23 05:35:14;;;;;;;1.15;0.38;;;10.70;75.20;;;;;;5026146;28;20788;-64
2021/05/23 05:37:42;;;;;;;1.70;1.60;;;10.80;75.10;;;;;;5032596;28;20037;-65
2021/05/23 05:40:10;;;;;;;2.70;1.05;;;10.80;74.90;;;;;;5024544;28;20029;-64
2021/05/23 05:42:36;;;;;;;1.77;0.82;;;10.90;75.30;;;;;;5032529;28;20040;-64
2021/05/23 05:45:08;;;;;;;2.85;0.73;;;10.90;75.20;;;;;;5027370;28;20039;-64
2021/05/23 05:47:36;;;;;;;0.50;0.45;;;10.90;75.50;;;;;;5027295;28;20709;-64
2021/05/23 05:50:06;;;;;;;0.60;0.60;;;11.00;75.30;;;;;;5030695;28;20037;-64
2021/05/23 05:52:34;;;;;;;0.98;0.40;;;11.00;75.40;;;;;;5035900;28;20063;-64
2021/05/23 05:55:00;;;;;;;1.25;0.50;;;11.10;75.40;;;;;;5027304;28;20024;-64
2021/05/23 05:57:30;;;;;;;0.55;0.30;;;11.10;75.60;;;;;;5028483;28;20033;-65
2021/05/23 05:59:56;;;;;;;0.88;0.50;;;11.20;75.90;;;;;;5029235;28;20037;-64
2021/05/23 06:02:28;;;;;;;1.38;0.43;;;11.20;75.60;;;;;;5016484;28;20044;-66
2021/05/23 06:04:54;;;;;;;0.55;0.40;;;11.30;76.00;;;;;;5034267;28;20036;-64
2021/05/23 06:07:24;;;;;;;0.38;0.38;;;11.30;75.20;;;;;;5026103;28;20087;-64
2021/05/23 06:09:51;;;;;;;0.57;0.40;;;11.40;75.00;;;;;;5025151;28;20030;-63
2021/05/23 06:12:18;;;;;;;1.00;0.30;;;11.40;74.60;;;;;;5027255;28;20048;-63
2021/05/23 06:14:46;;;;;;;0.43;0.30;;;11.40;74.30;;;;;;5027834;28;20670;-63
2021/05/23 06:17:17;;;;;;;0.30;0.30;;;11.40;74.50;;;;;;5026251;28;20038;-64
2021/05/23 06:19:47;;;;;;;1.45;0.47;;;11.50;74.60;;;;;;5029793;28;20080;-63
2021/05/23 06:22:18;;;;;;;0.75;0.40;;;11.50;74.30;;;;;;5029595;28;20033;-64
2021/05/23 06:24:48;;;;;;;1.20;0.70;;;11.50;74.30;;;;;;5034332;28;20029;-64
2021/05/23 06:27:18;;;;;;;1.48;1.15;;;11.50;74.20;;;;;;5033878;28;20037;-64
2021/05/23 06:29:49;;;;;;;0.80;0.80;;;11.60;74.10;;;;;;5028165;28;20029;-65
2021/05/23 06:32:19;;;;;;;0.80;0.60;;;11.60;74.40;;;;;;5025186;28;20124;-63
2021/05/23 06:34:47;;;;;;;2.15;0.70;;;11.70;74.20;;;;;;5030219;28;20034;-64
2021/05/23 06:37:16;;;;;;;0.82;0.70;;;11.70;74.00;;;;;;5012264;28;20029;-64
2021/05/23 06:39:41;;;;;;;0.52;0.52;;;11.70;74.20;;;;;;5021139;28;20029;-65
2021/05/23 06:42:12;;;;;;;0.70;0.50;;;11.80;73.80;;;;;;5024398;28;20037;-65
2021/05/23 06:44:43;;;;;;;1.40;0.70;;;11.80;73.90;;;;;;5028160;28;20045;-65
2021/05/23 06:47:10;;;;;;;1.92;0.50;;;11.80;74.40;;;;;;5029193;28;20094;-65
2021/05/23 06:49:38;;;;;;;0.70;0.60;;;11.80;73.30;;;;;;5024012;28;20025;-65
2021/05/23 06:52:06;;;;;;;1.13;0.60;;;11.90;72.90;;;;;;5025525;28;20516;-65
2021/05/23 06:54:32;;;;;;;1.35;1.00;;;11.90;72.30;;;;;;5026519;28;20104;-65
2021/05/23 06:57:00;;;;;;;1.45;1.35;;;11.90;72.30;;;;;;5037027;28;20197;-64
2021/05/23 06:59:28;;;;;;;2.85;1.80;;;11.80;72.40;;;;;;5040159;28;20694;-65
2021/05/23 07:01:58;;;;;;;1.23;1.05;;;11.80;72.40;;;;;;5026130;28;20057;-64
2021/05/23 07:04:23;;;;;;;1.27;1.17;;;11.80;72.50;;;;;;5024301;28;20339;-65
2021/05/23 07:06:51;;;;;;;0.77;0.77;;;11.80;72.30;;;;;;5025282;28;20037;-64
2021/05/23 07:09:17;;;;;;;1.50;1.40;;;11.70;72.50;;;;;;5025675;28;20041;-65
2021/05/23 07:11:45;;;;;;;1.45;0.70;;;11.70;72.40;;;;;;5039040;28;20712;-65
2021/05/23 07:14:10;;;;;;;2.03;0.40;;;11.70;72.10;;;;;;5029242;28;20033;-64
2021/05/23 07:16:41;;;;;;;0.70;0.70;;;11.70;72.10;;;;;;5029481;28;20048;-65
2021/05/23 07:19:09;;;;;;;1.02;0.60;;;11.70;72.20;;;;;;5028313;28;20033;-63
2021/05/23 07:21:34;;;;;;;2.78;1.27;;;11.70;72.00;;;;;;5024971;28;20037;-65
2021/05/23 07:24:05;;;;;;;1.13;0.80;;;11.70;72.20;;;;;;5031812;28;20051;-65
2021/05/23 07:26:33;;;;;;;0.63;0.57;;;11.70;72.60;;;;;;5030332;28;20041;-64
2021/05/23 07:29:01;;;;;;;2.67;2.00;;;11.70;72.30;;;;;;5033653;28;20053;-65
2021/05/23 07:31:30;;;;;;;3.13;2.35;;;11.70;72.10;;;;;;5033698;28;20036;-65
2021/05/23 07:33:59;;;;;;;1.70;1.35;;;11.70;72.30;;;;;;5035372;28;20053;-65
2021/05/23 07:36:24;;;;;;;1.90;1.55;;;11.70;72.30;;;;;;5039514;28;20063;-65
2021/05/23 07:38:55;;;;;;;3.17;2.00;;;11.70;72.10;;;;;;5041058;28;20558;-64
2021/05/23 07:41:28;;;;;;;2.45;1.30;;;11.70;72.00;;;;;;5040093;28;20037;-65
2021/05/23 07:43:58;;;;;;;2.55;1.15;;;11.80;72.30;;;;;;5029797;28;20041;-65
2021/05/23 07:46:27;;;;;;;1.20;0.90;;;11.80;72.10;;;;;;5038686;28;20353;-65
2021/05/23 07:48:57;;;;;;;2.83;2.45;;;11.80;71.80;;;;;;5037089;28;20508;-64
2021/05/23 07:51:23;;;;;;;2.00;1.65;;;11.80;71.70;;;;;;5036290;28;20033;-64
2021/05/23 07:53:53;;;;;;;3.67;2.38;;;11.90;72.20;;;;;;5037339;28;20056;-65
2021/05/23 07:56:23;;;;;;;1.60;1.25;;;11.90;72.30;;;;;;5039066;28;20040;-65
2021/05/23 07:58:51;;;;;;;0.70;0.70;;;11.90;72.30;;;;;;5038526;28;20390;-65
2021/05/23 08:01:19;;;;;;;0.45;0.25;;;12.00;72.10;;;;;;5038971;28;20369;-65
2021/05/23 08:03:45;;;;;;;0.55;0.50;;;12.10;71.50;;;;;;5039301;28;20048;-65
2021/05/23 08:06:13;;;;;;;0.65;0.35;;;12.10;71.20;;;;;;5035733;28;20583;-65
2021/05/23 08:08:44;;;;;;;2.47;0.75;;;12.20;71.00;;;;;;5038305;28;20045;-65
2021/05/23 08:11:12;;;;;;;0.82;0.50;;;12.30;71.30;;;;;;5031271;28;20029;-65
2021/05/23 08:13:39;;;;;;;0.95;0.45;;;12.40;71.20;;;;;;5034617;28;20041;-65
2021/05/23 08:16:10;;;;;;;0.73;0.30;;;12.40;70.90;;;;;;5033649;28;20048;-65
2021/05/23 08:18:38;;;;;;;0.80;0.40;;;12.50;71.00;;;;;;5036851;28;20409;-65
2021/05/23 08:21:06;;;;;;;0.75;0.40;;;12.60;71.30;;;;;;5038042;28;20120;-65
2021/05/23 08:23:36;;;;;;;1.58;0.25;;;12.60;71.60;;;;;;5038202;28;20657;-65
2021/05/23 08:26:04;;;;;;;1.35;0.30;;;12.70;71.30;;;;;;5034868;28;20041;-65
2021/05/23 08:28:32;;;;;;;0.65;0.30;;;12.80;71.10;;;;;;5035607;28;20029;-66
2021/05/23 08:31:05;;;;;;;1.17;0.80;;;12.90;71.40;;;;;;5040272;28;20049;-66
2021/05/23 08:33:33;;;;;;;0.95;0.30;;;13.00;71.90;;;;;;5035559;28;20033;-66
2021/05/23 08:36:01;;;;;;;1.75;0.30;;;13.10;71.40;;;;;;5041015;28;20262;-64
2021/05/23 08:38:33;;;;;;;1.02;0.20;;;13.30;70.40;;;;;;5038479;28;20090;-66
2021/05/23 08:41:03;;;;;;;1.23;0.40;;;13.40;69.50;;;;;;5039208;28;20034;-65
2021/05/23 08:43:31;;;;;;;0.30;0.30;;;13.50;69.20;;;;;;5038414;28;20025;-66
2021/05/23 08:46:01;;;;;;;0.38;0.30;;;13.60;69.10;;;;;;5038027;28;20112;-66
2021/05/23 08:48:27;;;;;;;0.82;0.40;;;13.70;68.50;;;;;;5036139;28;20380;-65
2021/05/23 08:50:56;;;;;;;0.43;0.25;;;13.80;68.10;;;;;;5036229;28;20029;-64
2021/05/23 08:53:25;;;;;;;1.48;0.30;;;13.80;67.90;;;;;;5037242;28;20033;-65
2021/05/23 08:55:54;;;;;;;0.93;0.45;;;13.90;67.80;;;;;;5037997;28;20055;-65
2021/05/23 08:58:23;;;;;;;0.50;0.13;;;13.90;67.60;;;;;;5039203;28;20044;-66
2021/05/23 09:00:49;;;;;;;0.60;0.30;;;14.00;67.40;;;;;;5036683;28;20038;-65
2021/05/23 09:03:21;;;;;;;0.73;0.30;;;14.00;67.40;;;;;;5038467;28;20045;-66
2021/05/23 09:05:51;;;;;;;1.33;0.20;;;14.10;66.60;;;;;;5037176;28;20036;-65
2021/05/23 09:08:24;;;;;;;0.60;0.20;;;14.10;66.80;;;;;;5036145;28;20133;-65
2021/05/23 09:10:56;;;;;;;0.65;0.43;;;14.20;66.30;;;;;;5034509;28;20444;-65
2021/05/23 09:13:34;;;;;;;0.30;0.20;;;14.30;66.00;;;;;;5036906;28;20029;-66
2021/05/23 09:16:09;;;;;;;0.52;0.30;;;14.40;64.70;;;;;;5033698;28;20030;-65
2021/05/23 09:18:47;;;;;;;0.82;0.20;;;14.50;64.00;;;;;;5036134;28;20120;-66
2021/05/23 09:21:14;;;;;;;1.42;0.47;;;14.60;64.10;;;;;;5041683;28;20417;-65
2021/05/23 09:23:48;;;;;;;0.73;0.20;;;14.60;63.30;;;;;;5036208;28;20059;-66
2021/05/23 09:26:26;;;;;;;0.35;0.30;;;14.70;63.00;;;;;;5035679;28;20029;-66
2021/05/23 09:29:01;;;;;;;0.68;0.30;;;14.60;62.60;;;;;;5032408;28;20535;-66
2021/05/23 09:31:29;;;;;;;;;;;14.60;63.00;;;;;;5035893;28;20766;-65
2021/05/23 09:34:02;;;;;;;0.40;0.20;;;14.70;62.70;;;;;;5036063;28;20395;-65
2021/05/23 09:36:42;;;;;;;0.80;0.80;;;14.60;62.00;;;;;;5043082;28;20034;-66
2021/05/23 09:39:10;;;;;;;0.38;0.20;;;14.60;61.90;;;;;;5038346;28;20037;-66
2021/05/23 09:41:38;;;;;;;0.22;0.10;;;14.60;62.20;;;;;;5037047;28;20560;-65
2021/05/23 09:44:27;;;;;;;0.22;0.15;;;14.60;62.20;;;;;;5037013;28;20108;-66
2021/05/23 09:47:01;;;;;;;0.55;0.28;;;14.60;61.80;;;;;;5036253;28;20029;-65
2021/05/23 09:49:42;;;;;;;0.60;0.30;;;14.70;61.90;;;;;;5037089;28;20076;-65
2021/05/23 09:52:17;;;;;;;0.50;0.32;;;14.70;62.10;;;;;;5035238;28;20025;-66
2021/05/23 09:54:50;;;;;;;1.35;0.30;;;14.70;61.60;;;;;;5033643;28;20067;-66
2021/05/23 09:57:22;;;;;;;0.30;0.20;;;14.80;60.60;;;;;;5036621;28;20113;-66
2021/05/23 10:00:05;;;;;;;0.50;0.30;;;14.80;60.60;;;;;;5034422;28;20068;-66
2021/05/23 10:02:33;;;;;;;1.95;1.13;;;14.80;59.40;;;;;;5034937;28;20492;-66
2021/05/23 10:05:09;;;;;;;0.63;0.30;;;14.80;59.80;;;;;;5034500;28;20068;-66
2021/05/23 10:07:37;;;;;;;0.82;0.20;;;14.80;59.00;;;;;;5034799;28;20065;-66
2021/05/23 10:10:03;;;;;;;1.15;0.90;;;14.70;58.70;;;;;;5035630;28;20033;-66
2021/05/23 10:12:33;;;;;;;1.00;0.40;;;14.70;58.80;;;;;;5030672;28;20120;-66
2021/05/23 10:15:04;;;;;;;1.48;0.30;;;14.60;58.40;;;;;;5045462;28;20029;-66
2021/05/23 10:17:34;;;;;;;0.40;0.20;;;14.50;58.50;;;;;;5040842;28;20507;-65
2021/05/23 10:20:09;;;;;;;1.30;0.20;;;14.40;58.40;;;;;;5041025;28;20095;-65
2021/05/23 10:22:36;;;;;;;2.30;0.40;;;14.40;58.70;;;;;;5039849;28;20037;-66
2021/05/23 10:25:16;;;;;;;1.25;0.28;;;14.30;59.00;;;;;;5039888;28;20108;-66
2021/05/23 10:27:49;;;;;;;0.98;0.30;;;14.30;58.90;;;;;;5041683;28;20124;-65
2021/05/23 10:30:20;;;;;;;0.60;0.10;;;14.30;59.40;;;;;;5039361;28;20029;-66
2021/05/23 10:32:51;;;;;;;0.40;0.20;;;14.30;59.80;;;;;;5039701;28;20476;-65
2021/05/23 10:35:33;;;;;;;0.30;0.22;;;14.40;60.00;;;;;;5040042;28;20037;-65
2021/05/23 10:38:08;;;;;;;1.52;0.30;;;14.50;59.40;;;;;;5039447;28;20059;-66
2021/05/23 10:40:37;;;;;;;0.50;0.30;;;14.70;59.30;;;;;;5039244;28;20038;-66
2021/05/23 10:43:05;;;;;;;0.80;0.20;;;14.80;60.00;;;;;;5037821;28;20037;-66
2021/05/23 10:45:38;;;;;;;0.65;0.25;;;15.00;59.60;;;;;;5038872;28;20120;-65
2021/05/23 10:48:20;;;;;;;1.00;0.28;;;15.10;58.80;;;;;;5039543;28;20037;-66
2021/05/23 10:50:47;;;;;;;0.80;0.45;;;15.30;58.40;;;;;;5038361;28;20029;-66
2021/05/23 10:53:13;;;;;;;1.73;0.57;;;15.40;59.00;;;;;;5036831;28;20060;-66
2021/05/23 10:55:57;;;;;;;0.60;0.30;;;15.50;59.20;;;;;;5039287;28;20402;-66
2021/05/23 10:58:25;;;;;;;1.88;0.40;;;15.70;58.90;;;;;;5037488;28;20037;-66
2021/05/23 11:01:00;;;;;;;0.93;0.30;;;15.80;58.90;;;;;;5038465;28;20091;-66
2021/05/23 11:03:29;;;;;;;1.10;0.20;;;15.90;58.80;;;;;;5039208;28;20108;-66
2021/05/23 11:06:05;;;;;;;0.50;0.20;;;16.00;58.80;;;;;;5038320;28;20033;-66
2021/05/23 11:08:37;;;;;;;0.63;0.20;;;16.20;58.30;;;;;;5039731;28;20056;-66
2021/05/23 11:11:08;;;;;;;0.60;0.30;;;16.30;57.80;;;;;;5037683;28;20042;-65
2021/05/23 11:13:38;;;;;;;1.25;0.30;;;16.40;56.50;;;;;;5038008;28;20501;-66
2021/05/23 11:16:16;;;;;;;1.52;0.50;;;16.50;57.00;;;;;;5038480;28;20120;-67
2021/05/23 11:18:49;;;;;;;0.82;0.40;;;16.70;56.40;;;;;;5040582;28;20029;-66
2021/05/23 11:21:17;;;;;;;1.02;0.30;;;16.80;55.30;;;;;;5038665;28;20029;-66
2021/05/23 11:23:56;;;;;;;0.88;0.40;;;16.80;53.80;;;;;;5045882;28;20396;-66
2021/05/23 11:26:25;;;;;;;1.02;0.38;;;16.90;53.70;;;;;;5038723;28;20029;-66
2021/05/23 11:28:59;;;;;;;2.42;1.08;;;16.90;52.80;;;;;;5038990;28;20036;-65
2021/05/23 11:31:36;;;;;;;2.03;0.45;;;16.90;52.60;;;;;;5040097;28;20033;-64
2021/05/23 11:34:06;;;;;;;0.75;0.50;;;16.90;52.20;;;;;;5037930;28;20447;-65
2021/05/23 11:36:37;;;;;;;2.13;0.40;;;16.90;51.30;;;;;;5038810;28;20164;-66
2021/05/23 11:39:11;;;;;;;1.92;0.45;;;16.90;50.90;;;;;;5038646;28;20072;-66
2021/05/23 11:41:46;;;;;;;1.23;0.47;;;16.80;52.30;;;;;;5035039;28;20128;-65
2021/05/23 11:44:14;;;;;;;;;;;16.80;51.70;;;;;;5038477;28;20044;-66
2021/05/23 11:46:53;;;;;;;1.27;0.80;;;16.80;51.40;;;;;;5033743;28;19917;-66
2021/05/23 11:49:20;;;;;;;0.60;0.20;;;16.80;51.40;;;;;;5036882;28;20124;-66
2021/05/23 11:51:48;;;;;;;1.83;1.38;;;16.80;52.00;;;;;;5035667;28;20116;-66
2021/05/23 11:54:16;;;;;;;0.45;0.28;;;16.70;51.40;;;;;;5035016;28;20053;-66
2021/05/23 11:56:45;;;;;;;0.35;0.10;;;16.80;51.90;;;;;;5037532;28;20068;-65
2021/05/23 11:59:17;;;;;;;1.35;0.30;;;16.80;50.60;;;;;;5036105;28;20403;-65
2021/05/23 12:01:51;;;;;;;0.93;0.20;;;16.80;51.30;;;;;;5036997;28;20037;-65
2021/05/23 12:04:20;;;;;;;0.85;0.28;;;16.80;51.70;;;;;;5045242;28;20036;-66
2021/05/23 12:06:50;;;;;;;0.45;0.20;;;16.90;51.30;;;;;;5036383;28;20111;-66
2021/05/23 12:09:28;;;;;;;0.40;0.10;;;16.90;49.40;;;;;;5036175;28;20136;-65
2021/05/23 12:12:07;;;;;;;0.63;0.10;;;16.90;49.30;;;;;;5030137;28;20444;-66
2021/05/23 12:14:39;;;;;;;0.35;0.20;;;16.90;48.30;;;;;;5037578;28;20497;-66
2021/05/23 12:17:11;;;;;;;0.77;0.77;;;17.00;47.50;;;;;;5037333;28;20038;-66
2021/05/23 12:22:24;;;;;;;0.22;0.10;;;17.10;48.50;;;;;;5037246;28;20566;-66
2021/05/23 12:24:54;;;;;;;0.15;0.15;;;17.10;48.00;;;;;;5037587;28;20261;-66
2021/05/23 12:27:34;;;;;;;0.40;0.40;;;17.20;49.00;;;;;;5035656;28;20587;-66
2021/05/23 12:30:16;;;;;;;0.47;0.20;;;17.30;47.10;;;;;;5038480;28;20493;-66
2021/05/23 12:32:52;;;;;;;0.50;0.30;;;17.30;46.80;;;;;;5035489;28;20132;-66
2021/05/23 12:35:25;;;;;;;1.27;1.00;;;17.40;47.90;;;;;;5035634;28;20057;-65
2021/05/23 12:37:58;;;;;;;0.50;0.50;;;17.40;48.10;;;;;;5033741;28;20109;-65
2021/05/23 12:40:39;;;;;;;0.60;0.60;;;17.50;47.90;;;;;;5031025;28;20037;-66
2021/05/23 12:43:25;;;;;;;0.90;0.60;;;17.50;47.60;;;;;;5033390;28;20037;-66
2021/05/23 12:45:58;;;;;;;0.43;0.30;;;17.50;48.00;;;;;;5035382;28;20029;-65
2021/05/23 12:48:33;;;;;;;1.65;0.90;;;17.60;48.00;;;;;;5035092;28;20044;-66
2021/05/23 12:51:06;;;;;;;2.10;1.23;;;17.60;46.50;;;;;;5032903;28;20033;-66
2021/05/23 12:53:34;;;;;;;1.65;1.08;;;17.70;47.70;;;;;;5034091;28;20026;-66
2021/05/23 12:56:36;;;;;;;1.55;0.98;;;17.70;48.00;;;;;;5036813;28;20461;-66
2021/05/23 12:59:19;;;;;;;1.35;0.90;;;17.70;47.80;;;;;;5032935;28;20041;-66
2021/05/23 13:01:46;;;;;;;0.80;0.50;;;17.70;46.90;;;;;;5032452;28;20025;-66
2021/05/23 13:04:19;;;;;;;0.20;0.10;;;17.70;46.70;;;;;;5035594;28;20029;-66
2021/05/23 13:06:55;;;;;;;0.45;0.30;;;17.70;45.90;;;;;;5036589;28;20033;-66